Time;durP1;ratioP1;P1;durP2;ratioP2;P2;SDS_P1;SDS_P2;PMS_P1;PMS_P2;Temp;Humidity;BMP_temperature;BMP_pressure;BME280_temperature;BME280_humidity;BME280_pressure;Samples;Min_cycle;Max_cycle;Signal;HPM_P1;HPM_P2
2022/01/29 00:01:28;;;;;;;;;;;23.00;22.90;;;;;;5121081;28;19972;-48
2022/01/29 00:03:53;;;;;;;;;;;23.00;22.90;;;;;;5126409;28;19931;-47
2022/01/29 00:06:19;;;;;;;;;;;23.10;22.90;;;;;;5117637;28;20470;-46
2022/01/29 00:08:45;;;;;;;;;;;23.10;22.90;;;;;;5120865;28;19923;-52
2022/01/29 00:11:14;;;;;;;;;;;23.00;23.00;;;;;;5125162;28;19935;-46
2022/01/29 00:13:40;;;;;;;;;;;23.10;23.00;;;;;;5121213;28;19989;-47
2022/01/29 00:16:06;;;;;;;;;;;23.10;23.00;;;;;;5126452;28;19923;-46
2022/01/29 00:18:32;;;;;;;;;;;23.10;23.00;;;;;;5120878;28;19935;-45
2022/01/29 00:20:58;;;;;;;;;;;23.20;22.90;;;;;;5121890;27;20064;-47
2022/01/29 00:23:23;;;;;;;;;;;23.00;23.10;;;;;;5128127;27;19984;-45
2022/01/29 00:25:49;;;;;;;;;;;23.10;23.00;;;;;;5121926;27;20363;-48
2022/01/29 00:28:15;;;;;;;;;;;23.10;23.00;;;;;;5123375;27;20300;-44
2022/01/29 00:30:43;;;;;;;;;;;23.10;23.00;;;;;;5130005;27;19976;-48
2022/01/29 00:33:12;;;;;;;;;;;23.10;23.00;;;;;;5124355;27;19927;-45
2022/01/29 00:35:37;;;;;;;;;;;23.20;23.00;;;;;;5129972;27;20439;-46
2022/01/29 00:38:04;;;;;;;;;;;23.20;23.00;;;;;;5124178;27;20871;-45
2022/01/29 00:40:31;;;;;;;;;;;23.20;23.00;;;;;;5124080;27;19924;-45
2022/01/29 00:42:57;;;;;;;;;;;23.20;22.90;;;;;;5126287;27;19927;-48
2022/01/29 00:45:23;;;;;;;;;;;23.30;22.90;;;;;;5121964;27;20082;-46
2022/01/29 00:47:49;;;;;;;;;;;23.30;23.00;;;;;;5123863;27;19923;-46
2022/01/29 00:50:15;;;;;;;;;;;23.20;23.00;;;;;;5129502;27;19971;-44
2022/01/29 00:52:40;;;;;;;;;;;23.30;23.00;;;;;;5105567;27;19923;-44
2022/01/29 00:55:07;;;;;;;;;;;23.20;23.00;;;;;;5127943;27;20383;-53
2022/01/29 00:57:35;;;;;;;;;;;23.30;23.00;;;;;;5107684;27;20275;-45
2022/01/29 01:00:03;;;;;;;;;;;23.30;23.00;;;;;;5123204;27;19927;-46
2022/01/29 01:02:29;;;;;;;;;;;23.30;22.90;;;;;;5125823;27;20869;-44
2022/01/29 01:04:55;;;;;;;;;;;23.30;22.90;;;;;;5122740;27;20280;-45
2022/01/29 01:07:21;;;;;;;;;;;23.30;23.00;;;;;;5123988;27;19958;-44
2022/01/29 01:09:46;;;;;;;;;;;23.30;23.00;;;;;;5129399;27;19923;-52
2022/01/29 01:12:12;;;;;;;;;;;23.20;23.00;;;;;;5123835;27;19931;-52
2022/01/29 01:14:38;;;;;;;;;;;23.10;23.10;;;;;;5123704;27;19923;-53
2022/01/29 01:17:04;;;;;;;;;;;23.00;23.20;;;;;;5129055;27;19927;-49
2022/01/29 01:19:30;;;;;;;;;;;23.00;23.20;;;;;;5120861;27;19923;-52
2022/01/29 01:21:55;;;;;;;;;;;22.90;23.30;;;;;;5126426;27;20264;-50
2022/01/29 01:24:22;;;;;;;;;;;23.00;23.20;;;;;;5123252;27;19930;-48
2022/01/29 01:26:47;;;;;;;;;;;23.00;23.30;;;;;;5123435;27;19938;-52
2022/01/29 01:29:13;;;;;;;;;;;23.00;23.30;;;;;;5128822;27;20386;-50
2022/01/29 01:31:39;;;;;;;;;;;22.90;23.30;;;;;;5104799;27;19924;-49
2022/01/29 01:34:06;;;;;;;;;;;23.00;23.30;;;;;;5122711;27;20367;-49
2022/01/29 01:36:35;;;;;;;;;;;22.90;23.30;;;;;;5128555;27;19931;-49
2022/01/29 01:39:06;;;;;;;;;;;22.90;23.20;;;;;;5119337;27;19927;-49
2022/01/29 01:41:38;;;;;;;;;;;22.90;23.20;;;;;;5126278;27;19930;-54
2022/01/29 01:44:04;;;;;;;;;;;22.90;23.20;;;;;;5127103;27;20018;-47
2022/01/29 01:46:30;;;;;;;;;;;22.90;23.20;;;;;;5123201;27;20424;-49
2022/01/29 01:48:56;;;;;;;;;;;22.90;23.20;;;;;;5128579;27;20298;-50
2022/01/29 01:51:22;;;;;;;;;;;22.90;23.20;;;;;;5122863;27;19946;-48
2022/01/29 01:53:47;;;;;;;;;;;23.00;23.10;;;;;;5103747;27;20383;-49
2022/01/29 01:56:13;;;;;;;;;;;23.00;23.10;;;;;;5125654;27;19931;-48
2022/01/29 01:58:39;;;;;;;;;;;23.00;23.10;;;;;;5120231;27;19937;-51
2022/01/29 02:01:05;;;;;;;;;;;23.00;23.00;;;;;;5122237;27;19935;-52
2022/01/29 02:03:31;;;;;;;;;;;23.00;23.00;;;;;;5128218;27;19992;-48
2022/01/29 02:05:56;;;;;;;;;;;23.00;23.10;;;;;;5122612;27;19923;-49
2022/01/29 02:08:22;;;;;;;;;;;23.00;23.10;;;;;;5128088;27;19927;-49
2022/01/29 02:10:49;;;;;;;;;;;22.90;23.10;;;;;;5122673;27;19923;-47
2022/01/29 02:13:15;;;;;;;;;;;23.00;23.10;;;;;;5122643;27;19927;-48
2022/01/29 02:15:41;;;;;;;;;;;23.00;23.10;;;;;;5124226;27;20408;-52
2022/01/29 02:18:13;;;;;;;;;;;23.00;23.00;;;;;;5120532;27;19931;-47
2022/01/29 02:20:39;;;;;;;;;;;23.00;23.10;;;;;;5122035;27;19924;-47
2022/01/29 02:23:05;;;;;;;;;;;23.00;23.20;;;;;;5127905;27;19934;-45
2022/01/29 02:25:40;;;;;;;;;;;22.90;23.20;;;;;;5122259;27;19962;-46
2022/01/29 02:28:06;;;;;;;;;;;23.00;23.20;;;;;;5124288;27;20237;-55
2022/01/29 02:30:34;;;;;;;;;;;23.00;23.20;;;;;;5126581;27;19930;-47
2022/01/29 02:33:00;;;;;;;;;;;22.90;23.20;;;;;;5120145;27;19990;-48
2022/01/29 02:35:27;;;;;;;;;;;23.00;23.20;;;;;;5124911;27;19931;-46
2022/01/29 02:37:54;;;;;;;;;;;23.00;23.20;;;;;;5121260;27;19927;-47
2022/01/29 02:40:21;;;;;;;;;;;23.00;23.20;;;;;;5121784;27;20347;-47
2022/01/29 02:42:47;;;;;;;;;;;23.00;23.20;;;;;;5127417;27;19971;-46
2022/01/29 02:45:13;;;;;;;;;;;23.10;23.20;;;;;;5121497;27;20301;-46
2022/01/29 02:47:39;;;;;;;;;;;23.00;23.30;;;;;;5121663;27;20191;-47
2022/01/29 02:50:05;;;;;;;;;;;23.00;23.20;;;;;;5127508;27;19928;-47
2022/01/29 02:52:30;;;;;;;;;;;23.00;23.20;;;;;;5118784;27;19924;-48
2022/01/29 02:54:56;;;;;;;;;;;23.00;23.20;;;;;;5125149;27;19935;-47
2022/01/29 02:57:22;;;;;;;;;;;23.00;23.20;;;;;;5121512;27;19928;-47
2022/01/29 02:59:49;;;;;;;;;;;23.00;23.30;;;;;;5121624;27;20272;-48
2022/01/29 03:02:15;;;;;;;;;;;23.00;23.30;;;;;;5127223;27;19927;-46
2022/01/29 03:04:40;;;;;;;;;;;23.00;23.30;;;;;;5121810;27;20342;-50
2022/01/29 03:07:06;;;;;;;;;;;23.00;23.20;;;;;;5121770;27;20403;-48
2022/01/29 03:09:32;;;;;;;;;;;23.00;23.20;;;;;;5108080;28;20060;-47
2022/01/29 03:11:59;;;;;;;;;;;23.00;23.20;;;;;;5117803;27;19927;-47
2022/01/29 03:14:24;;;;;;;;;;;23.00;23.20;;;;;;5125519;28;20379;-53
2022/01/29 03:16:50;;;;;;;;;;;23.00;23.20;;;;;;5122125;28;19923;-49
2022/01/29 03:19:16;;;;;;;;;;;23.00;23.20;;;;;;5121512;28;20367;-48
2022/01/29 03:21:42;;;;;;;;;;;23.00;23.10;;;;;;5126825;28;20435;-47
2022/01/29 03:24:07;;;;;;;;;;;23.00;23.00;;;;;;5121345;28;19935;-45
2022/01/29 03:26:33;;;;;;;;;;;23.00;23.00;;;;;;5121373;28;20220;-47
2022/01/29 03:28:59;;;;;;;;;;;23.00;23.00;;;;;;5124292;28;19935;-46
2022/01/29 03:31:26;;;;;;;;;;;23.00;23.00;;;;;;5118994;28;19930;-47
2022/01/29 03:33:52;;;;;;;;;;;23.10;22.90;;;;;;5123777;28;19929;-51
2022/01/29 03:36:18;;;;;;;;;;;23.00;22.90;;;;;;5106057;28;19927;-46
2022/01/29 03:38:44;;;;;;;;;;;23.00;22.90;;;;;;5121142;28;20980;-45
2022/01/29 03:41:12;;;;;;;;;;;23.00;22.80;;;;;;5126912;28;20023;-46
2022/01/29 03:43:45;;;;;;;;;;;23.00;22.80;;;;;;5121413;28;19927;-46
2022/01/29 03:46:11;;;;;;;;;;;23.10;22.70;;;;;;5121125;28;19930;-49
2022/01/29 03:48:36;;;;;;;;;;;23.10;22.70;;;;;;5123184;28;20290;-46
2022/01/29 03:51:02;;;;;;;;;;;23.10;22.70;;;;;;5120121;28;19927;-47
2022/01/29 03:53:28;;;;;;;;;;;23.10;22.70;;;;;;5121228;28;20111;-45
2022/01/29 03:55:54;;;;;;;;;;;23.10;22.60;;;;;;5127734;27;19923;-46
2022/01/29 03:58:19;;;;;;;;;;;23.10;22.60;;;;;;5124983;27;19976;-45
2022/01/29 04:00:45;;;;;;;;;;;23.20;22.50;;;;;;5130312;27;19923;-45
2022/01/29 04:03:11;;;;;;;;;;;23.10;22.50;;;;;;5125034;27;19931;-47
2022/01/29 04:05:37;;;;;;;;;;;23.30;22.30;;;;;;5123049;27;19923;-50
2022/01/29 04:08:06;;;;;;;;;;;23.10;22.40;;;;;;5127683;27;19931;-49
2022/01/29 04:10:32;;;;;;;;;;;23.20;22.40;;;;;;5123941;27;19923;-45
2022/01/29 04:12:58;;;;;;;;;;;23.20;22.50;;;;;;5124884;27;19946;-46
2022/01/29 04:15:24;;;;;;;;;;;23.20;22.40;;;;;;5130326;27;19946;-48
2022/01/29 04:17:49;;;;;;;;;;;23.20;22.40;;;;;;5124708;27;19927;-46
2022/01/29 04:20:15;;;;;;;;;;;23.20;22.30;;;;;;5128820;27;20290;-54
2022/01/29 04:22:41;;;;;;;;;;;23.30;22.30;;;;;;5126084;27;19978;-44
2022/01/29 04:25:07;;;;;;;;;;;23.30;22.20;;;;;;5103180;27;20307;-45
2022/01/29 04:27:38;;;;;;;;;;;23.20;22.30;;;;;;5127696;27;19923;-47
2022/01/29 04:30:09;;;;;;;;;;;23.30;22.10;;;;;;5124576;27;19924;-51
2022/01/29 04:35:06;;;;;;;;;;;23.20;22.20;;;;;;5129781;27;20014;-48
2022/01/29 04:37:32;;;;;;;;;;;23.30;22.10;;;;;;5124392;27;19947;-49
2022/01/29 04:39:58;;;;;;;;;;;23.20;22.20;;;;;;5124316;27;19927;-48
2022/01/29 04:42:23;;;;;;;;;;;23.20;22.20;;;;;;5128572;27;19924;-46
2022/01/29 04:44:49;;;;;;;;;;;23.20;22.10;;;;;;5121206;27;20394;-51
2022/01/29 04:47:15;;;;;;;;;;;23.20;22.20;;;;;;5128657;27;20337;-46
2022/01/29 04:49:41;;;;;;;;;;;23.30;22.10;;;;;;5124264;27;19993;-44
2022/01/29 04:52:06;;;;;;;;;;;23.30;22.00;;;;;;5124140;27;19938;-45
2022/01/29 04:54:33;;;;;;;;;;;23.30;22.00;;;;;;5129629;27;19929;-47
2022/01/29 04:56:58;;;;;;;;;;;23.20;22.10;;;;;;5124032;27;19927;-49
2022/01/29 04:59:24;;;;;;;;;;;23.20;22.20;;;;;;5123983;27;20626;-48
2022/01/29 05:01:50;;;;;;;;;;;23.20;22.20;;;;;;5108300;27;20018;-52
2022/01/29 05:04:16;;;;;;;;;;;23.20;22.20;;;;;;5121635;27;19924;-48
2022/01/29 05:06:41;;;;;;;;;;;23.20;22.20;;;;;;5127849;27;19966;-52
2022/01/29 05:09:09;;;;;;;;;;;23.20;22.20;;;;;;5125240;27;20393;-46
2022/01/29 05:11:35;;;;;;;;;;;23.10;22.30;;;;;;5123910;27;19923;-47
2022/01/29 05:14:03;;;;;;;;;;;23.10;22.30;;;;;;5129273;27;19980;-47
2022/01/29 05:16:42;;;;;;;;;;;23.10;22.40;;;;;;5119738;27;20289;-50
2022/01/29 05:27:31;;;;;;;;;;;23.20;22.60;;;;;;5123703;27;20010;-45
2022/01/29 05:29:57;;;;;;;;;;;23.30;22.50;;;;;;5126956;27;19923;-51
2022/01/29 05:32:23;;;;;;;;;;;23.30;22.60;;;;;;5125462;27;20419;-49
2022/01/29 05:34:49;;;;;;;;;;;23.30;22.60;;;;;;5123354;27;19930;-50
2022/01/29 05:37:15;;;;;;;;;;;23.20;22.70;;;;;;5128711;27;20012;-52
2022/01/29 05:39:40;;;;;;;;;;;23.30;22.70;;;;;;5119757;27;20005;-52
2022/01/29 05:42:06;;;;;;;;;;;23.10;22.80;;;;;;5121843;27;19924;-52
2022/01/29 05:44:32;;;;;;;;;;;23.00;22.90;;;;;;5128439;27;19935;-53
2022/01/29 05:46:58;;;;;;;;;;;22.90;23.10;;;;;;5122992;27;19934;-50
2022/01/29 05:49:23;;;;;;;;;;;23.00;23.10;;;;;;5124442;27;19924;-56
2022/01/29 05:51:49;;;;;;;;;;;23.00;23.10;;;;;;5127193;27;19923;-51
2022/01/29 05:54:15;;;;;;;;;;;22.90;23.10;;;;;;5122628;27;19934;-51
2022/01/29 05:56:41;;;;;;;;;;;23.00;23.10;;;;;;5126572;27;20931;-55
2022/01/29 05:59:07;;;;;;;;;;;23.00;23.10;;;;;;5120075;27;20435;-51
2022/01/29 06:01:32;;;;;;;;;;;23.00;23.10;;;;;;5121991;27;19927;-49
2022/01/29 06:03:58;;;;;;;;;;;23.00;23.10;;;;;;5128362;27;19956;-48
2022/01/29 06:06:24;;;;;;;;;;;23.00;23.20;;;;;;5122774;27;19967;-49
2022/01/29 06:08:50;;;;;;;;;;;22.90;23.30;;;;;;5122752;27;19923;-51
2022/01/29 06:11:16;;;;;;;;;;;22.90;23.20;;;;;;5128165;27;19934;-50
2022/01/29 06:13:42;;;;;;;;;;;22.90;23.20;;;;;;5122569;27;20018;-50
2022/01/29 06:16:08;;;;;;;;;;;22.90;23.30;;;;;;5106711;27;19923;-48
2022/01/29 06:18:34;;;;;;;;;;;22.80;23.40;;;;;;5099180;27;20023;-53
2022/01/29 06:21:04;;;;;;;;;;;22.90;23.30;;;;;;5103124;27;20339;-50
2022/01/29 06:23:32;;;;;;;;;;;22.80;23.40;;;;;;5127765;27;19937;-48
2022/01/29 06:25:58;;;;;;;;;;;22.80;23.40;;;;;;5103694;27;20383;-49
2022/01/29 06:28:24;;;;;;;;;;;22.90;23.40;;;;;;5122206;27;20194;-49
2022/01/29 06:30:49;;;;;;;;;;;22.90;23.30;;;;;;5127525;27;19927;-49
2022/01/29 06:33:15;;;;;;;;;;;22.90;23.40;;;;;;5121597;27;19930;-48
2022/01/29 06:35:42;;;;;;;;;;;22.90;23.30;;;;;;5123807;27;19972;-54
2022/01/29 06:38:08;;;;;;;;;;;22.90;23.40;;;;;;5121388;27;19967;-52
2022/01/29 06:40:34;;;;;;;;;;;22.80;23.40;;;;;;5121733;27;19923;-50
2022/01/29 06:43:01;;;;;;;;;;;22.80;23.40;;;;;;5127600;27;19931;-47
2022/01/29 06:45:27;;;;;;;;;;;22.80;23.40;;;;;;5103919;27;19930;-49
2022/01/29 06:47:53;;;;;;;;;;;22.80;23.40;;;;;;5121974;27;19923;-48
2022/01/29 06:50:19;;;;;;;;;;;22.80;23.50;;;;;;5127389;27;19923;-49
2022/01/29 06:52:44;;;;;;;;;;;22.90;23.40;;;;;;5119638;27;19924;-48
2022/01/29 06:55:10;;;;;;;;;;;22.80;23.40;;;;;;5121738;27;19924;-56
2022/01/29 06:57:36;;;;;;;;;;;22.90;23.40;;;;;;5124654;27;19928;-50
2022/01/29 07:00:02;;;;;;;;;;;22.90;23.40;;;;;;5121364;27;19923;-50
2022/01/29 07:02:28;;;;;;;;;;;22.90;23.40;;;;;;5127184;27;20347;-48
2022/01/29 07:04:54;;;;;;;;;;;22.90;23.40;;;;;;5121734;27;19927;-49
2022/01/29 07:07:20;;;;;;;;;;;23.00;23.30;;;;;;5121496;27;20374;-47
2022/01/29 07:09:46;;;;;;;;;;;22.90;23.40;;;;;;5126750;27;19927;-50
2022/01/29 07:12:12;;;;;;;;;;;22.90;23.30;;;;;;5118183;27;19930;-51
2022/01/29 07:14:39;;;;;;;;;;;22.90;23.30;;;;;;5119869;27;20399;-50
2022/01/29 07:17:09;;;;;;;;;;;22.90;23.40;;;;;;5126890;28;19985;-49
2022/01/29 07:19:35;;;;;;;;;;;22.90;23.40;;;;;;5121515;28;20391;-47
2022/01/29 07:22:01;;;;;;;;;;;22.90;23.40;;;;;;5127225;28;19937;-47
2022/01/29 07:24:27;;;;;;;;;;;22.90;23.40;;;;;;5121576;28;19934;-47
2022/01/29 07:26:52;;;;;;;;;;;22.90;23.40;;;;;;5121425;28;19945;-50
2022/01/29 07:29:18;;;;;;;;;;;22.90;23.40;;;;;;5125533;27;19924;-54
2022/01/29 07:31:44;;;;;;;;;;;22.80;23.50;;;;;;5122873;27;20374;-51
2022/01/29 07:34:10;;;;;;;;;;;22.80;23.50;;;;;;5106290;27;20221;-47
2022/01/29 07:36:35;;;;;;;;;;;22.90;23.40;;;;;;5131038;27;19950;-47
2022/01/29 07:39:01;;;;;;;;;;;22.80;23.40;;;;;;5125529;27;19923;-47
2022/01/29 07:41:27;;;;;;;;;;;22.90;23.30;;;;;;5131050;27;19933;-48
2022/01/29 07:43:53;;;;;;;;;;;22.80;23.40;;;;;;5125462;27;19945;-46
2022/01/29 07:46:18;;;;;;;;;;;22.90;23.40;;;;;;5125117;27;19927;-48
2022/01/29 07:48:44;;;;;;;;;;;22.90;23.30;;;;;;5127900;27;19948;-49
2022/01/29 07:51:10;;;;;;;;;;;22.90;23.30;;;;;;5122944;27;19924;-52
2022/01/29 07:53:36;;;;;;;;;;;22.90;23.20;;;;;;5124992;27;19927;-49
2022/01/29 07:56:02;;;;;;;;;;;22.90;23.20;;;;;;5130716;27;20359;-46
2022/01/29 07:58:27;;;;;;;;;;;22.90;23.20;;;;;;5125120;27;19927;-47
2022/01/29 08:00:53;;;;;;;;;;;23.00;23.10;;;;;;5129525;27;20019;-53
2022/01/29 08:03:19;;;;;;;;;;;22.90;23.20;;;;;;5126315;27;20382;-47
2022/01/29 08:05:45;;;;;;;;;;;23.00;23.00;;;;;;5124760;27;20298;-46
2022/01/29 08:08:10;;;;;;;;;;;22.90;23.00;;;;;;5126491;27;19931;-48
2022/01/29 08:10:36;;;;;;;;;;;22.90;22.90;;;;;;5123600;27;19981;-46
2022/01/29 08:13:02;;;;;;;;;;;23.00;22.80;;;;;;5124688;27;19927;-46
2022/01/29 08:15:28;;;;;;;;;;;23.00;22.80;;;;;;5130209;27;19935;-45
2022/01/29 08:17:53;;;;;;;;;;;23.10;22.70;;;;;;5124765;27;19972;-47
2022/01/29 08:20:19;;;;;;;;;;;23.10;22.60;;;;;;5127044;27;20386;-52
2022/01/29 08:22:47;;;;;;;;;;;23.10;22.60;;;;;;5127872;27;20299;-47
2022/01/29 08:25:13;;;;;;;;;;;23.20;22.50;;;;;;5122557;27;19923;-45
2022/01/29 08:27:39;;;;;;;;;;;23.30;22.50;;;;;;5127452;27;20306;-48
2022/01/29 08:30:05;;;;;;;;;;;23.30;22.40;;;;;;5124115;27;20037;-46
2022/01/29 08:32:30;;;;;;;;;;;23.20;22.40;;;;;;5124650;27;19924;-44
2022/01/29 08:34:56;;;;;;;;;;;23.30;22.40;;;;;;5130202;27;19923;-48
2022/01/29 08:37:22;;;;;;;;;;;23.30;22.30;;;;;;5124427;27;19947;-49
2022/01/29 08:39:48;;;;;;;;;;;23.30;22.20;;;;;;5124457;27;19930;-51
2022/01/29 08:42:14;;;;;;;;;;;23.20;22.30;;;;;;5129121;27;19954;-46
2022/01/29 08:44:41;;;;;;;;;;;23.30;22.20;;;;;;5121217;27;20348;-49
2022/01/29 08:47:07;;;;;;;;;;;23.30;22.20;;;;;;5127463;27;20373;-46
2022/01/29 08:49:32;;;;;;;;;;;23.30;22.20;;;;;;5123935;27;19931;-49
2022/01/29 08:51:58;;;;;;;;;;;23.30;22.20;;;;;;5124118;27;19924;-48
2022/01/29 08:54:24;;;;;;;;;;;23.30;22.00;;;;;;5129782;27;20382;-48
2022/01/29 08:56:50;;;;;;;;;;;23.30;22.10;;;;;;5123945;27;20270;-50
2022/01/29 08:59:15;;;;;;;;;;;23.30;22.10;;;;;;5123820;27;19927;-47
2022/01/29 09:01:41;;;;;;;;;;;23.30;21.90;;;;;;5128675;27;19935;-50
2022/01/29 09:04:08;;;;;;;;;;;23.30;22.00;;;;;;5120253;27;20423;-50
2022/01/29 09:06:34;;;;;;;;;;;23.30;21.90;;;;;;5128178;27;20382;-48
2022/01/29 09:09:00;;;;;;;;;;;23.30;22.00;;;;;;5123703;27;19935;-48
2022/01/29 09:11:26;;;;;;;;;;;23.30;22.00;;;;;;5105635;27;20356;-48
2022/01/29 09:13:51;;;;;;;;;;;23.30;22.00;;;;;;5129367;27;19927;-46
2022/01/29 09:16:17;;;;;;;;;;;23.30;22.00;;;;;;5123947;27;19923;-51
2022/01/29 09:18:43;;;;;;;;;;;23.30;22.00;;;;;;5123605;27;19931;-50
2022/01/29 09:21:09;;;;;;;;;;;23.30;22.00;;;;;;5126448;27;19934;-52
2022/01/29 09:23:35;;;;;;;;;;;23.30;21.90;;;;;;5121080;27;20220;-51
2022/01/29 09:26:04;;;;;;;;;;;23.30;22.00;;;;;;5128008;27;20325;-53
2022/01/29 09:28:29;;;;;;;;;;;23.30;22.00;;;;;;5125141;27;19927;-48
2022/01/29 09:30:55;;;;;;;;;;;23.30;21.90;;;;;;5123118;27;19934;-48
2022/01/29 09:33:21;;;;;;;;;;;23.30;22.00;;;;;;5128581;27;19934;-48
2022/01/29 09:35:47;;;;;;;;;;;23.30;22.00;;;;;;5123112;27;19972;-50
2022/01/29 09:38:12;;;;;;;;;;;23.30;22.00;;;;;;5123221;27;20403;-50
2022/01/29 09:40:40;;;;;;;;;;;23.30;22.10;;;;;;5125022;27;19944;-53
2022/01/29 09:43:08;;;;;;;;;;;23.30;22.00;;;;;;5121484;27;19923;-57
2022/01/29 09:45:34;;;;;;;;;;;23.30;22.10;;;;;;5123493;27;19924;-57
2022/01/29 09:48:03;;;;;;;;;;;23.20;22.20;;;;;;5110018;27;19972;-55
2022/01/29 09:50:31;;;;;;;;;;;23.20;22.30;;;;;;5123166;27;20100;-53
2022/01/29 09:52:57;;;;;;;;;;;23.20;22.40;;;;;;5127750;27;19928;-52
2022/01/29 09:55:23;;;;;;;;;;;23.10;22.40;;;;;;5122642;27;19976;-53
2022/01/29 09:57:48;;;;;;;;;;;23.20;22.40;;;;;;5121392;27;20374;-53
2022/01/29 10:00:15;;;;;;;;;;;23.10;22.50;;;;;;5125484;27;19924;-54
2022/01/29 10:02:40;;;;;;;;;;;23.20;22.60;;;;;;5122030;27;19972;-54
2022/01/29 10:05:08;;;;;;;;;;;23.30;22.60;;;;;;5122814;27;20391;-52
2022/01/29 10:07:34;;;;;;;;;;;23.20;22.60;;;;;;5128095;27;19923;-53
2022/01/29 10:10:00;;;;;;;;;;;23.20;22.70;;;;;;5122639;27;19924;-50
2022/01/29 10:12:32;;;;;;;;;;;23.10;22.80;;;;;;5128090;27;19930;-49
2022/01/29 10:15:01;;;;;;;;;;;23.20;22.80;;;;;;5124603;27;20389;-51
2022/01/29 10:17:37;;;;;;;;;;;23.20;22.90;;;;;;5115414;27;19931;-50
2022/01/29 10:20:09;;;;;;;;;;;23.20;22.90;;;;;;5107482;27;20302;-51
2022/01/29 10:22:34;;;;;;;;;;;23.20;23.00;;;;;;5122184;27;20108;-50
2022/01/29 10:25:04;;;;;;;;;;;23.30;23.00;;;;;;5122348;27;19923;-50
2022/01/29 10:27:29;;;;;;;;;;;23.20;23.10;;;;;;5127902;27;19972;-51
2022/01/29 10:29:59;;;;;;;;;;;23.20;23.10;;;;;;5122302;27;19928;-50
2022/01/29 10:32:25;;;;;;;;;;;23.30;23.10;;;;;;5122419;27;20379;-48
2022/01/29 10:34:54;;;;;;;;;;;23.30;23.10;;;;;;5126087;27;20435;-53
2022/01/29 10:37:24;;;;;;;;;;;23.30;23.20;;;;;;5119442;27;19927;-55
2022/01/29 10:39:52;;;;;;;;;;;23.30;23.30;;;;;;5121243;27;20324;-50
2022/01/29 10:42:22;;;;;;;;;;;23.30;23.40;;;;;;5127495;27;19923;-54
2022/01/29 10:44:49;;;;;;;;;;;23.30;23.50;;;;;;5122025;27;20381;-49
2022/01/29 10:47:15;;;;;;;;;;;23.30;23.50;;;;;;5127481;27;19934;-50
2022/01/29 10:50:06;;;;;;;;;;;23.30;23.50;;;;;;5121892;27;19931;-52
2022/01/29 10:52:32;;;;;;;;;;;23.30;23.60;;;;;;5121726;27;20040;-53
2022/01/29 10:54:59;;;;;;;;;;;23.20;23.80;;;;;;5123730;27;19937;-53
2022/01/29 10:57:32;;;;;;;;;;;23.20;23.90;;;;;;5120252;27;20287;-54
2022/01/29 10:59:58;;;;;;;;;;;23.20;24.20;;;;;;5121438;27;19923;-52
2022/01/29 11:02:27;;;;;;;;;;;23.20;24.20;;;;;;5127136;27;19946;-50
2022/01/29 11:04:53;;;;;;;;;;;23.20;24.20;;;;;;5121529;27;19924;-53
2022/01/29 11:07:24;;;;;;;;;;;23.20;24.40;;;;;;5121734;27;20410;-53
2022/01/29 11:09:52;;;;;;;;;;;23.30;24.40;;;;;;5127160;27;20390;-52
2022/01/29 11:12:19;;;;;;;;;;;23.30;24.50;;;;;;5119379;27;19923;-54
2022/01/29 11:14:45;;;;;;;;;;;23.30;24.50;;;;;;5119100;27;20146;-51
2022/01/29 11:17:11;;;;;;;;;;;23.40;24.50;;;;;;5126456;28;19972;-53
2022/01/29 11:19:37;;;;;;;;;;;23.30;24.60;;;;;;5121544;28;19933;-57
2022/01/29 11:22:04;;;;;;;;;;;23.30;24.60;;;;;;5108731;28;19933;-53
2022/01/29 11:24:30;;;;;;;;;;;23.20;24.80;;;;;;5102900;28;20015;-54
2022/01/29 11:26:56;;;;;;;;;;;23.30;24.70;;;;;;5102074;28;19923;-53
2022/01/29 11:29:26;;;;;;;;;;;23.30;24.80;;;;;;5127009;28;20056;-50
2022/01/29 11:32:10;;;;;;;;;;;23.30;24.90;;;;;;5118470;28;19923;-51
2022/01/29 11:34:55;;;;;;;;;;;23.30;24.80;;;;;;5120284;28;19928;-50
2022/01/29 11:37:21;;;;;;;;;;;23.30;24.80;;;;;;5126842;28;20370;-58
2022/01/29 11:39:46;;;;;;;;;;;23.30;24.90;;;;;;5102642;28;19927;-57
2022/01/29 11:42:12;;;;;;;;;;;23.30;25.00;;;;;;5103072;28;19946;-53
2022/01/29 11:44:38;;;;;;;;;;;23.30;25.10;;;;;;5126930;28;20003;-53
2022/01/29 11:47:23;;;;;;;;;;;23.30;25.10;;;;;;5121583;28;19923;-51
2022/01/29 11:49:50;;;;;;;;;;;23.30;25.10;;;;;;5118558;28;20271;-53
2022/01/29 11:52:20;;;;;;;;;;;23.30;25.10;;;;;;5124583;28;19934;-54
2022/01/29 11:55:18;;;;;;;;;;;23.30;25.10;;;;;;5120828;28;20401;-52
2022/01/29 11:58:02;;;;;;;;;;;23.30;25.20;;;;;;5046140;28;20038;-53
2022/01/29 12:00:35;;;;;;;;;;;23.30;25.20;;;;;;5126607;28;20358;-51
2022/01/29 12:03:01;;;;;;;;;;;23.30;25.20;;;;;;5102778;28;19928;-51
2022/01/29 12:05:30;;;;;;;;;;;23.30;25.30;;;;;;5101429;28;20299;-55
2022/01/29 12:08:07;;;;;;;;;;;23.30;25.30;;;;;;5124528;28;20367;-58
2022/01/29 12:10:36;;;;;;;;;;;23.20;25.40;;;;;;5119016;28;19927;-55
2022/01/29 12:13:09;;;;;;;;;;;23.30;25.40;;;;;;5120599;28;20371;-54
2022/01/29 12:15:35;;;;;;;;;;;23.30;25.40;;;;;;5126418;27;20388;-54
2022/01/29 12:18:04;;;;;;;;;;;23.20;25.50;;;;;;5123883;27;19923;-53
2022/01/29 12:20:30;;;;;;;;;;;23.30;25.50;;;;;;5106894;27;19923;-52
2022/01/29 12:23:05;;;;;;;;;;;23.30;25.50;;;;;;5130361;27;20170;-52
2022/01/29 12:25:31;;;;;;;;;;;23.30;25.50;;;;;;5124336;27;19927;-56
2022/01/29 12:27:56;;;;;;;;;;;23.30;25.50;;;;;;5126180;27;19927;-57
2022/01/29 12:30:29;;;;;;;;;;;23.30;25.60;;;;;;5123855;27;19973;-55
2022/01/29 12:33:04;;;;;;;;;;;23.30;25.70;;;;;;5124756;27;19928;-51
2022/01/29 12:35:46;;;;;;;;;;;23.30;25.80;;;;;;5130205;27;20018;-53
2022/01/29 12:38:12;;;;;;;;;;;23.30;25.80;;;;;;5126923;27;19937;-54
2022/01/29 12:40:40;;;;;;;;;;;23.30;25.90;;;;;;5124303;27;20318;-52
2022/01/29 12:43:22;;;;;;;;;;;23.30;25.90;;;;;;5130009;27;19938;-52
2022/01/29 12:45:48;;;;;;;;;;;23.30;26.00;;;;;;5121559;27;19928;-52
2022/01/29 12:48:14;;;;;;;;;;;23.30;26.10;;;;;;5122319;27;19939;-55
2022/01/29 12:50:41;;;;;;;;;;;23.30;26.00;;;;;;5129313;27;20321;-50
2022/01/29 12:53:11;;;;;;;;;;;23.30;26.10;;;;;;5124059;27;20378;-52
2022/01/29 12:55:37;;;;;;;;;;;23.30;26.20;;;;;;5105689;27;19971;-50
2022/01/29 12:58:03;;;;;;;;;;;23.30;26.30;;;;;;5129455;27;20006;-52
2022/01/29 13:00:29;;;;;;;;;;;23.30;26.20;;;;;;5124215;27;20443;-50
2022/01/29 13:03:01;;;;;;;;;;;23.30;26.30;;;;;;5125349;27;20363;-57
2022/01/29 13:05:27;;;;;;;;;;;23.30;26.30;;;;;;5125861;27;19934;-52
2022/01/29 13:07:53;;;;;;;;;;;23.30;26.30;;;;;;5122959;27;20592;-50
2022/01/29 13:10:19;;;;;;;;;;;23.30;26.30;;;;;;5129417;27;20019;-59
2022/01/29 13:12:45;;;;;;;;;;;23.40;26.20;;;;;;5123835;27;19923;-57
2022/01/29 13:15:11;;;;;;;;;;;23.20;26.40;;;;;;5123667;27;20176;-50
2022/01/29 13:17:39;;;;;;;;;;;23.30;26.30;;;;;;5109847;27;19924;-53
2022/01/29 13:20:05;;;;;;;;;;;23.30;26.20;;;;;;5123771;27;19979;-51
2022/01/29 13:22:31;;;;;;;;;;;23.30;26.20;;;;;;5121158;27;19933;-52
2022/01/29 13:25:02;;;;;;;;;;;23.30;26.30;;;;;;5108345;27;19927;-52
2022/01/29 13:27:30;;;;;;;;;;;23.30;26.20;;;;;;5122948;27;19933;-55
2022/01/29 13:30:01;;;;;;;;;;;23.30;26.20;;;;;;5127220;27;19953;-56
2022/01/29 13:32:27;;;;;;;;;;;23.30;26.20;;;;;;5127259;27;20018;-54
2022/01/29 13:34:53;;;;;;;;;;;23.30;26.20;;;;;;5123499;27;20383;-55
2022/01/29 13:37:30;;;;;;;;;;;23.30;26.10;;;;;;5129001;27;19935;-52
2022/01/29 13:39:56;;;;;;;;;;;23.40;26.10;;;;;;5122318;27;19923;-54
2022/01/29 13:42:23;;;;;;;;;;;23.30;26.10;;;;;;5119622;27;19930;-53
2022/01/29 13:45:03;;;;;;;;;;;23.30;26.10;;;;;;5127678;27;19927;-56
2022/01/29 13:47:30;;;;;;;;;;;23.30;26.10;;;;;;5123220;27;20003;-54
2022/01/29 13:49:56;;;;;;;;;;;23.30;26.00;;;;;;5122918;27;19928;-54
2022/01/29 13:52:23;;;;;;;;;;;23.30;26.10;;;;;;5128461;27;19971;-52
2022/01/29 13:54:49;;;;;;;;;;;23.30;26.00;;;;;;5123160;27;19923;-53
2022/01/29 13:57:15;;;;;;;;;;;23.30;26.00;;;;;;5123111;27;19949;-51
2022/01/29 13:59:42;;;;;;;;;;;23.30;26.10;;;;;;5125218;27;19927;-51
2022/01/29 14:02:08;;;;;;;;;;;23.30;26.00;;;;;;5120721;27;19924;-52
2022/01/29 14:04:37;;;;;;;;;;;23.30;26.10;;;;;;5128164;27;20225;-52
2022/01/29 14:07:12;;;;;;;;;;;23.30;26.10;;;;;;5123048;27;19923;-54
2022/01/29 14:09:46;;;;;;;;;;;23.20;26.30;;;;;;5122857;27;19977;-54
2022/01/29 14:12:13;;;;;;;;;;;23.20;26.30;;;;;;5128158;27;19948;-54
2022/01/29 14:14:39;;;;;;;;;;;23.10;26.30;;;;;;5122593;27;19971;-53
2022/01/29 14:17:06;;;;;;;;;;;23.10;26.40;;;;;;5121764;27;19938;-54
2022/01/29 14:19:32;;;;;;;;;;;23.10;26.40;;;;;;5124278;27;19927;-55
2022/01/29 14:21:58;;;;;;;;;;;23.20;26.30;;;;;;5121343;27;19946;-55
2022/01/29 14:24:24;;;;;;;;;;;23.10;26.40;;;;;;5122219;27;20547;-53
2022/01/29 14:26:50;;;;;;;;;;;23.10;26.40;;;;;;5127625;27;19927;-52